Time;durP1;ratioP1;P1;durP2;ratioP2;P2;SDS_P1;SDS_P2;PMS_P1;PMS_P2;Temp;Humidity;BMP_temperature;BMP_pressure;BME280_temperature;BME280_humidity;BME280_pressure;Samples;Min_cycle;Max_cycle;Signal;HPM_P1;HPM_P2
2021/05/15 00:02:02;;;;;;;2.33;1.10;;;;;;;;;;5140782;27;20047;-69
2021/05/15 00:04:28;;;;;;;1.55;0.82;;;;;;;;;;5135683;27;20065;-69
2021/05/15 00:06:54;;;;;;;2.00;1.00;;;;;;;;;;5135948;27;20098;-69
2021/05/15 00:09:20;;;;;;;4.53;1.30;;;;;;;;;;5136586;27;20135;-69
2021/05/15 00:11:46;;;;;;;3.13;1.10;;;;;;;;;;5136858;27;20055;-69
2021/05/15 00:14:12;;;;;;;1.98;1.10;;;;;;;;;;5134682;27;20422;-69
2021/05/15 00:16:38;;;;;;;2.38;1.02;;;;;;;;;;5135840;27;20484;-69
2021/05/15 00:19:04;;;;;;;1.73;0.90;;;;;;;;;;5135844;27;20052;-69
2021/05/15 00:21:30;;;;;;;2.03;1.20;;;;;;;;;;5136514;27;20133;-69
2021/05/15 00:23:56;;;;;;;2.53;1.25;;;;;;;;;;5135895;27;20419;-69
2021/05/15 00:26:22;;;;;;;1.70;1.13;;;;;;;;;;5135461;27;20047;-69
2021/05/15 00:28:49;;;;;;;4.38;2.20;;;;;;;;;;5135497;27;20046;-69
2021/05/15 00:31:15;;;;;;;2.60;1.10;;;;;;;;;;5136417;27;20058;-69
2021/05/15 00:33:41;;;;;;;2.53;1.25;;;;;;;;;;5135710;27;20730;-69
2021/05/15 00:36:07;;;;;;;5.45;1.25;;;;;;;;;;5135903;27;20051;-69
2021/05/15 00:38:33;;;;;;;2.50;1.23;;;;;;;;;;5134871;27;20035;-69
2021/05/15 00:40:59;;;;;;;3.67;1.58;;;;;;;;;;5135972;27;20050;-69
2021/05/15 00:43:27;;;;;;;2.03;1.13;;;;;;;;;;5135531;27;20546;-69
2021/05/15 00:45:54;;;;;;;2.47;1.10;;;;;;;;;;5135328;27;20043;-69
2021/05/15 00:48:20;;;;;;;3.30;1.10;;;;;;;;;;5134677;27;20056;-69
2021/05/15 00:50:46;;;;;;;3.92;1.38;;;;;;;;;;5128797;27;20051;-69
2021/05/15 00:53:12;;;;;;;2.25;1.10;;;;;;;;;;5123809;27;20058;-69
2021/05/15 00:55:38;;;;;;;2.22;1.10;;;;;;;;;;5134794;27;20062;-69
2021/05/15 00:58:04;;;;;;;1.55;1.02;;;;;;;;;;5134936;27;20138;-69
2021/05/15 01:00:31;;;;;;;2.42;1.10;;;;;;;;;;5135256;27;20051;-69
2021/05/15 01:02:58;;;;;;;2.35;1.00;;;;;;;;;;5135780;27;20476;-69
2021/05/15 01:05:24;;;;;;;3.20;1.00;;;;;;;;;;5134889;27;20043;-69
2021/05/15 01:07:50;;;;;;;3.35;1.10;;;;;;;;;;5146752;27;20043;-69
2021/05/15 01:10:17;;;;;;;3.17;1.67;;;;;;;;;;5138671;27;20051;-69
2021/05/15 01:12:52;;;;;;;2.15;1.10;;;;;;;;;;5135376;27;20058;-69
2021/05/15 01:15:18;;;;;;;1.20;0.80;;;;;;;;;;5134726;27;20051;-69
2021/05/15 01:17:48;;;;;;;1.80;1.00;;;;;;;;;;5137431;27;20047;-69
2021/05/15 01:20:16;;;;;;;2.75;1.10;;;;;;;;;;5134416;27;20488;-70
2021/05/15 01:22:43;;;;;;;2.72;1.23;;;;;;;;;;5146038;27;20104;-70
2021/05/15 01:25:10;;;;;;;2.28;1.10;;;;;;;;;;5134609;27;20059;-69
2021/05/15 01:27:36;;;;;;;1.67;0.90;;;;;;;;;;5134398;27;20500;-69
2021/05/15 01:30:04;;;;;;;2.38;1.10;;;;;;;;;;5137501;27;20479;-69
2021/05/15 01:32:30;;;;;;;2.10;1.00;;;;;;;;;;5135179;27;20055;-69
2021/05/15 01:34:56;;;;;;;1.98;1.08;;;;;;;;;;5134233;27;20057;-70
2021/05/15 01:37:22;;;;;;;2.78;1.00;;;;;;;;;;5134520;27;20051;-70
2021/05/15 01:39:49;;;;;;;1.65;0.93;;;;;;;;;;5134101;27;20138;-70
2021/05/15 01:42:15;;;;;;;2.40;1.20;;;;;;;;;;5129895;27;20054;-70
2021/05/15 01:44:41;;;;;;;2.25;1.05;;;;;;;;;;5137978;27;20129;-70
2021/05/15 01:47:07;;;;;;;1.50;0.88;;;;;;;;;;5133903;27;20098;-69
2021/05/15 01:49:33;;;;;;;4.75;1.17;;;;;;;;;;5134891;27;20434;-69
2021/05/15 01:51:59;;;;;;;2.35;1.00;;;;;;;;;;5131709;27;20051;-69
2021/05/15 01:54:25;;;;;;;2.08;0.88;;;;;;;;;;5126047;27;20135;-69
2021/05/15 01:56:52;;;;;;;2.00;0.82;;;;;;;;;;5146965;27;20074;-69
2021/05/15 01:59:17;;;;;;;1.30;0.93;;;;;;;;;;5134103;28;20047;-69
2021/05/15 02:01:43;;;;;;;1.17;0.90;;;;;;;;;;5134983;28;20483;-70
2021/05/15 02:04:09;;;;;;;3.72;1.20;;;;;;;;;;5133696;28;20514;-70
2021/05/15 02:06:35;;;;;;;1.40;0.95;;;;;;;;;;5133476;28;20066;-70
2021/05/15 02:09:02;;;;;;;1.50;0.90;;;;;;;;;;5133443;28;20055;-70
2021/05/15 02:11:28;;;;;;;2.35;0.93;;;;;;;;;;5134598;28;20111;-70
2021/05/15 02:13:55;;;;;;;2.47;0.90;;;;;;;;;;5134539;28;20047;-70
2021/05/15 02:16:20;;;;;;;1.15;0.70;;;;;;;;;;5133846;28;20407;-70
2021/05/15 02:18:47;;;;;;;0.88;0.73;;;;;;;;;;5133310;28;20082;-69
2021/05/15 02:21:13;;;;;;;1.45;1.10;;;;;;;;;;5134036;28;20058;-70
2021/05/15 02:23:39;;;;;;;1.35;0.68;;;;;;;;;;5134336;28;20050;-70
2021/05/15 02:26:05;;;;;;;1.55;0.80;;;;;;;;;;5133669;28;20107;-69
2021/05/15 02:28:31;;;;;;;3.00;1.45;;;;;;;;;;5133426;28;20493;-70
2021/05/15 02:30:59;;;;;;;0.98;0.77;;;;;;;;;;5134402;28;20077;-70
2021/05/15 02:33:25;;;;;;;1.63;0.80;;;;;;;;;;5133997;28;20047;-69
2021/05/15 02:35:51;;;;;;;1.23;0.75;;;;;;;;;;5133635;28;20051;-70
2021/05/15 02:38:18;;;;;;;2.53;1.15;;;;;;;;;;5136095;27;20147;-70
2021/05/15 02:40:46;;;;;;;2.45;0.70;;;;;;;;;;5137949;27;20051;-70
2021/05/15 02:43:12;;;;;;;0.85;0.52;;;;;;;;;;5138065;27;20047;-70
2021/05/15 02:45:39;;;;;;;0.98;0.75;;;;;;;;;;5137213;27;20054;-70
2021/05/15 02:48:06;;;;;;;0.95;0.82;;;;;;;;;;5137070;27;20476;-70
2021/05/15 02:50:32;;;;;;;1.27;0.85;;;;;;;;;;5137576;27;20051;-70
2021/05/15 02:52:58;;;;;;;0.95;0.52;;;;;;;;;;5133654;27;20047;-69
2021/05/15 02:55:25;;;;;;;2.60;0.73;;;;;;;;;;5137027;27;20054;-69
2021/05/15 02:57:53;;;;;;;4.78;1.20;;;;;;;;;;5137124;27;20464;-70
2021/05/15 03:00:21;;;;;;;1.73;0.85;;;;;;;;;;5137746;27;20079;-69
2021/05/15 03:02:47;;;;;;;2.80;0.68;;;;;;;;;;5137541;27;20498;-70
2021/05/15 03:05:16;;;;;;;2.28;0.93;;;;;;;;;;5136986;27;20062;-69
2021/05/15 03:07:42;;;;;;;1.83;0.85;;;;;;;;;;5136022;27;20055;-70
2021/05/15 03:10:10;;;;;;;1.50;0.82;;;;;;;;;;5136915;27;20043;-69
2021/05/15 03:12:36;;;;;;;2.10;0.80;;;;;;;;;;5137033;27;20043;-69
2021/05/15 03:15:06;;;;;;;2.17;0.80;;;;;;;;;;5136767;27;20043;-70
2021/05/15 03:17:32;;;;;;;2.55;0.70;;;;;;;;;;5136672;27;20051;-70
2021/05/15 03:19:58;;;;;;;1.45;0.65;;;;;;;;;;5137081;27;20055;-69
2021/05/15 03:22:25;;;;;;;1.55;0.90;;;;;;;;;;5136931;27;20062;-70
2021/05/15 03:24:51;;;;;;;2.80;0.73;;;;;;;;;;5136626;27;20050;-69
2021/05/15 03:27:17;;;;;;;0.85;0.55;;;;;;;;;;5136266;27;20545;-69
2021/05/15 03:29:43;;;;;;;2.83;0.70;;;;;;;;;;5137166;27;20050;-69
2021/05/15 03:32:09;;;;;;;1.70;0.98;;;;;;;;;;5136818;27;20054;-69
2021/05/15 03:34:35;;;;;;;3.63;0.70;;;;;;;;;;5136340;27;20047;-70
2021/05/15 03:37:01;;;;;;;3.63;1.33;;;;;;;;;;5136141;27;20051;-70
2021/05/15 03:39:28;;;;;;;1.23;0.60;;;;;;;;;;5137169;27;20395;-70
2021/05/15 03:41:54;;;;;;;1.45;0.80;;;;;;;;;;5136940;27;20054;-70
2021/05/15 03:44:20;;;;;;;2.45;1.10;;;;;;;;;;5136122;27;20051;-69
2021/05/15 03:46:46;;;;;;;3.28;0.90;;;;;;;;;;5135962;27;20047;-70
2021/05/15 03:49:12;;;;;;;1.83;0.63;;;;;;;;;;5135230;27;20047;-69
2021/05/15 03:51:39;;;;;;;1.50;0.82;;;;;;;;;;5133004;27;20504;-69
2021/05/15 03:54:05;;;;;;;1.58;0.70;;;;;;;;;;5131945;27;20095;-69
2021/05/15 03:56:32;;;;;;;2.30;0.85;;;;;;;;;;5127224;27;20042;-69
2021/05/15 03:58:58;;;;;;;2.03;0.93;;;;;;;;;;5136309;27;20051;-69
2021/05/15 04:01:24;;;;;;;0.82;0.68;;;;;;;;;;5135983;27;20114;-70
2021/05/15 04:03:50;;;;;;;1.75;0.90;;;;;;;;;;5135398;27;20109;-69
2021/05/15 04:06:16;;;;;;;2.25;0.80;;;;;;;;;;5135319;27;20057;-69
2021/05/15 04:08:42;;;;;;;2.33;0.93;;;;;;;;;;5135375;27;20050;-69
2021/05/15 04:11:09;;;;;;;2.38;0.82;;;;;;;;;;5135932;27;20050;-70
2021/05/15 04:13:42;;;;;;;2.55;0.75;;;;;;;;;;5135673;27;20063;-69
2021/05/15 04:16:13;;;;;;;2.25;0.75;;;;;;;;;;5135206;27;20479;-69
2021/05/15 04:18:39;;;;;;;1.85;0.90;;;;;;;;;;5135563;27;20054;-69
2021/05/15 04:21:05;;;;;;;1.85;0.73;;;;;;;;;;5135897;27;20476;-69
2021/05/15 04:23:31;;;;;;;0.95;0.73;;;;;;;;;;5135982;27;20047;-69
2021/05/15 04:25:58;;;;;;;1.40;0.98;;;;;;;;;;5135519;27;20467;-69
2021/05/15 04:28:25;;;;;;;2.20;0.80;;;;;;;;;;5135058;27;20047;-69
2021/05/15 04:30:51;;;;;;;2.65;0.95;;;;;;;;;;5135864;27;20108;-69
2021/05/15 04:33:19;;;;;;;1.90;0.80;;;;;;;;;;5151007;27;20469;-69
2021/05/15 04:35:45;;;;;;;0.98;0.70;;;;;;;;;;5156140;27;20133;-70
2021/05/15 04:38:12;;;;;;;2.70;0.73;;;;;;;;;;5155897;27;20047;-69
2021/05/15 04:40:38;;;;;;;1.15;0.70;;;;;;;;;;5156119;27;20069;-69
2021/05/15 04:43:04;;;;;;;1.92;0.90;;;;;;;;;;5156264;27;20054;-69
2021/05/15 04:45:32;;;;;;;1.75;0.70;;;;;;;;;;5156891;27;20471;-70
2021/05/15 04:47:59;;;;;;;1.75;0.80;;;;;;;;;;5155963;27;20047;-69
2021/05/15 04:50:26;;;;;;;1.08;0.70;;;;;;;;;;5146861;27;20047;-69
2021/05/15 04:52:52;;;;;;;1.73;0.85;;;;;;;;;;5135476;27;20043;-69
2021/05/15 04:55:18;;;;;;;1.63;0.77;;;;;;;;;;5130343;27;20047;-70
2021/05/15 04:57:45;;;;;;;1.42;0.93;;;;;;;;;;5128235;27;20046;-69
2021/05/15 05:00:12;;;;;;;1.10;0.73;;;;;;;;;;5116284;27;20051;-69
2021/05/15 05:02:38;;;;;;;1.00;0.70;;;;;;;;;;5135322;27;20368;-69
2021/05/15 05:05:06;;;;;;;1.15;0.75;;;;;;;;;;5136020;27;20043;-69
2021/05/15 05:07:32;;;;;;;3.97;1.13;;;;;;;;;;5135685;27;20524;-69
2021/05/15 05:09:58;;;;;;;2.25;0.88;;;;;;;;;;5135386;27;20078;-69
2021/05/15 05:12:24;;;;;;;1.48;0.70;;;;;;;;;;5135737;27;20055;-69
2021/05/15 05:14:50;;;;;;;1.92;0.88;;;;;;;;;;5135641;27;20126;-69
2021/05/15 05:17:16;;;;;;;3.42;1.83;;;;;;;;;;5135180;27;20061;-70
2021/05/15 05:19:42;;;;;;;1.30;0.70;;;;;;;;;;5134712;27;20047;-69
2021/05/15 05:22:09;;;;;;;1.48;0.75;;;;;;;;;;5135112;27;20071;-69
2021/05/15 05:24:35;;;;;;;1.77;0.70;;;;;;;;;;5135242;27;20053;-70
2021/05/15 05:27:02;;;;;;;2.70;0.90;;;;;;;;;;5135051;27;20133;-70
2021/05/15 05:29:28;;;;;;;2.05;0.57;;;;;;;;;;5134367;27;20054;-70
2021/05/15 05:31:54;;;;;;;2.40;0.65;;;;;;;;;;5134072;27;20051;-69
2021/05/15 05:34:21;;;;;;;1.08;0.50;;;;;;;;;;5134663;27;20055;-69
2021/05/15 05:36:48;;;;;;;1.63;0.85;;;;;;;;;;5134903;27;20046;-69
2021/05/15 05:39:16;;;;;;;1.15;0.80;;;;;;;;;;5134021;27;20494;-69
2021/05/15 05:41:42;;;;;;;1.02;0.63;;;;;;;;;;5134092;27;20488;-69
2021/05/15 05:44:08;;;;;;;1.95;0.80;;;;;;;;;;5134010;27;20128;-69
2021/05/15 05:46:34;;;;;;;1.27;0.63;;;;;;;;;;5134906;27;20062;-69
2021/05/15 05:49:00;;;;;;;1.63;0.90;;;;;;;;;;5133285;27;20051;-69
2021/05/15 05:51:27;;;;;;;2.35;0.60;;;;;;;;;;5132822;27;20051;-69
2021/05/15 05:53:53;;;;;;;4.68;0.75;;;;;;;;;;5133083;27;20058;-69
2021/05/15 05:56:20;;;;;;;1.30;0.60;;;;;;;;;;5130631;27;20047;-69
2021/05/15 05:58:46;;;;;;;4.85;1.20;;;;;;;;;;5134020;27;20130;-69
2021/05/15 06:01:13;;;;;;;2.15;0.70;;;;;;;;;;5134288;27;20475;-69
2021/05/15 06:03:39;;;;;;;2.88;0.70;;;;;;;;;;5132613;28;20039;-69
2021/05/15 06:06:05;;;;;;;2.55;0.75;;;;;;;;;;5134902;28;20380;-69
2021/05/15 06:08:31;;;;;;;1.33;0.73;;;;;;;;;;5133927;28;20047;-69
2021/05/15 06:10:57;;;;;;;1.25;0.60;;;;;;;;;;5133690;27;20050;-69
2021/05/15 06:13:23;;;;;;;1.90;0.82;;;;;;;;;;5137054;27;20121;-69
2021/05/15 06:15:49;;;;;;;2.00;0.50;;;;;;;;;;5138517;27;20066;-69
2021/05/15 06:18:15;;;;;;;2.22;0.80;;;;;;;;;;5138565;27;20043;-69
2021/05/15 06:20:42;;;;;;;3.65;0.68;;;;;;;;;;5137750;27;20124;-69
2021/05/15 06:23:08;;;;;;;2.20;0.73;;;;;;;;;;5137374;27;20484;-69
2021/05/15 06:25:34;;;;;;;1.38;0.70;;;;;;;;;;5137812;27;20065;-70
2021/05/15 06:28:00;;;;;;;2.33;0.75;;;;;;;;;;5138622;27;20047;-69
2021/05/15 06:30:27;;;;;;;2.60;0.77;;;;;;;;;;5137712;27;20578;-69
2021/05/15 06:32:53;;;;;;;1.58;0.80;;;;;;;;;;5137344;27;20488;-69
2021/05/15 06:35:19;;;;;;;4.43;0.80;;;;;;;;;;5137453;27;20096;-69
2021/05/15 06:37:45;;;;;;;3.63;1.00;;;;;;;;;;5138378;27;20505;-69
2021/05/15 06:40:11;;;;;;;1.75;0.60;;;;;;;;;;5137903;27;20086;-69
2021/05/15 06:42:37;;;;;;;1.63;0.98;;;;;;;;;;5137382;27;20050;-69
2021/05/15 06:45:05;;;;;;;2.28;1.33;;;;;;;;;;5138040;27;20501;-69
2021/05/15 06:47:32;;;;;;;0.60;0.52;;;;;;;;;;5137691;27;20120;-69
2021/05/15 06:49:58;;;;;;;1.40;0.70;;;;;;;;;;5137417;27;20047;-69
2021/05/15 06:52:23;;;;;;;1.48;0.68;;;;;;;;;;5137099;27;20051;-70
2021/05/15 06:54:50;;;;;;;3.30;0.90;;;;;;;;;;5135969;27;20487;-69
2021/05/15 06:57:17;;;;;;;2.45;0.70;;;;;;;;;;5134060;27;20057;-69
2021/05/15 06:59:42;;;;;;;3.40;0.70;;;;;;;;;;5139804;27;20092;-69
2021/05/15 07:02:08;;;;;;;1.75;1.00;;;;;;;;;;5148089;27;20511;-69
2021/05/15 07:04:35;;;;;;;2.80;0.80;;;;;;;;;;5138316;27;20496;-69
2021/05/15 07:07:01;;;;;;;1.33;0.50;;;;;;;;;;5140289;27;20043;-69
2021/05/15 07:09:27;;;;;;;1.55;1.10;;;;;;;;;;5136538;27;20452;-69
2021/05/15 07:11:53;;;;;;;0.57;0.30;;;;;;;;;;5136501;27;20046;-70
2021/05/15 07:14:19;;;;;;;2.17;0.70;;;;;;;;;;5135864;27;20047;-70
2021/05/15 07:16:46;;;;;;;1.95;0.60;;;;;;;;;;5135705;27;20043;-70
2021/05/15 07:19:12;;;;;;;2.05;0.52;;;;;;;;;;5128719;27;20407;-70
2021/05/15 07:21:39;;;;;;;0.80;0.60;;;;;;;;;;5134946;27;20074;-70
2021/05/15 07:24:06;;;;;;;1.52;0.60;;;;;;;;;;5135022;27;20043;-69
2021/05/15 07:26:32;;;;;;;0.98;0.60;;;;;;;;;;5135648;27;20047;-70
2021/05/15 07:28:58;;;;;;;0.80;0.35;;;;;;;;;;5132234;27;20035;-69
2021/05/15 07:31:24;;;;;;;1.50;0.60;;;;;;;;;;5135727;27;20678;-69
2021/05/15 07:33:50;;;;;;;2.75;0.68;;;;;;;;;;5134572;27;20053;-69
2021/05/15 07:36:17;;;;;;;1.83;0.70;;;;;;;;;;5133069;27;20100;-69
2021/05/15 07:38:44;;;;;;;1.52;0.50;;;;;;;;;;5132859;27;20067;-69
2021/05/15 07:41:10;;;;;;;2.00;0.77;;;;;;;;;;5132422;27;20043;-70
2021/05/15 07:43:36;;;;;;;5.68;0.70;;;;;;;;;;5133320;27;20047;-68
2021/05/15 07:46:03;;;;;;;2.80;1.08;;;;;;;;;;5134391;27;20549;-70
2021/05/15 07:48:29;;;;;;;1.77;0.60;;;;;;;;;;5128497;27;20040;-71
2021/05/15 07:50:56;;;;;;;1.77;0.80;;;;;;;;;;5134002;27;20634;-68
2021/05/15 07:53:22;;;;;;;0.70;0.60;;;;;;;;;;5134303;27;20043;-69
2021/05/15 07:55:49;;;;;;;1.30;0.40;;;;;;;;;;5135224;27;20047;-69
2021/05/15 07:58:15;;;;;;;2.50;0.47;;;;;;;;;;5135055;27;20136;-69
2021/05/15 08:00:41;;;;;;;1.08;0.75;;;;;;;;;;5133896;27;20042;-68
2021/05/15 08:03:07;;;;;;;1.63;0.60;;;;;;;;;;5135388;27;20051;-67
2021/05/15 08:05:33;;;;;;;2.30;1.05;;;;;;;;;;5135582;27;20050;-68
2021/05/15 08:08:02;;;;;;;1.67;0.60;;;;;;;;;;5140984;27;20404;-69
2021/05/15 08:10:28;;;;;;;1.15;0.55;;;;;;;;;;5135754;27;20112;-68
2021/05/15 08:12:55;;;;;;;0.82;0.32;;;;;;;;;;5132763;27;20042;-68
2021/05/15 08:15:21;;;;;;;1.35;0.55;;;;;;;;;;5133210;27;20515;-69
2021/05/15 08:17:47;;;;;;;1.08;0.40;;;;;;;;;;5134592;27;20106;-68
2021/05/15 08:20:14;;;;;;;1.13;0.50;;;;;;;;;;5132501;27;20042;-67
2021/05/15 08:22:40;;;;;;;1.77;0.60;;;;;;;;;;5132538;27;20066;-68
2021/05/15 08:25:07;;;;;;;1.60;0.55;;;;;;;;;;5134640;27;20046;-67
2021/05/15 08:27:37;;;;;;;3.85;0.70;;;;;;;;;;5133511;27;20043;-68
2021/05/15 08:30:05;;;;;;;9.32;1.27;;;;;;;;;;5131681;27;20681;-70
2021/05/15 08:32:33;;;;;;;9.88;1.33;;;;;;;;;;5134449;27;20054;-70
2021/05/15 08:34:59;;;;;;;5.75;0.98;;;;;;;;;;5133198;27;20047;-70
2021/05/15 08:37:25;;;;;;;4.90;0.77;;;;;;;;;;5133964;27;20047;-68
2021/05/15 08:39:51;;;;;;;3.53;0.70;;;;;;;;;;5132855;27;20388;-70
2021/05/15 08:42:19;;;;;;;3.38;0.70;;;;;;;;;;5133968;27;20103;-67
2021/05/15 08:44:46;;;;;;;3.47;0.90;;;;;;;;;;5133571;27;20055;-68
2021/05/15 08:47:15;;;;;;;1.67;0.45;;;;;;;;;;5133961;27;20096;-69
2021/05/15 08:49:41;;;;;;;6.03;1.05;;;;;;;;;;5131538;27;20467;-69
2021/05/15 08:52:07;;;;;;;2.72;0.65;;;;;;;;;;5132845;27;20039;-68
2021/05/15 08:54:33;;;;;;;4.07;1.52;;;;;;;;;;5131049;27;20047;-68
2021/05/15 08:57:00;;;;;;;2.97;0.60;;;;;;;;;;5133999;27;20058;-69
2021/05/15 08:59:26;;;;;;;2.83;0.70;;;;;;;;;;5132857;27;20043;-70
2021/05/15 09:01:53;;;;;;;2.05;0.63;;;;;;;;;;5133110;27;20067;-70
2021/05/15 09:04:20;;;;;;;2.05;0.63;;;;;;;;;;5134110;27;20066;-69
2021/05/15 09:06:46;;;;;;;1.25;0.55;;;;;;;;;;5133098;27;20051;-70
2021/05/15 09:09:12;;;;;;;0.82;0.50;;;;;;;;;;5132100;27;20051;-69
2021/05/15 09:11:38;;;;;;;5.18;0.70;;;;;;;;;;5132790;27;20039;-70
2021/05/15 09:14:13;;;;;;;1.98;0.75;;;;;;;;;;5132643;27;20051;-69
2021/05/15 09:16:46;;;;;;;1.03;0.40;;;;;;;;;;5132805;27;20115;-70
2021/05/15 09:19:18;;;;;;;1.23;0.50;;;;;;;;;;5128549;27;20100;-70
2021/05/15 09:21:56;;;;;;;8.45;0.80;;;;;;;;;;5132320;27;20039;-71
2021/05/15 09:24:27;;;;;;;1.63;0.50;;;;;;;;;;5133567;27;20047;-69
2021/05/15 09:26:54;;;;;;;2.03;0.40;;;;;;;;;;5112691;28;20047;-68
2021/05/15 09:29:20;;;;;;;2.42;0.55;;;;;;;;;;5120336;27;20035;-68
2021/05/15 09:31:46;;;;;;;2.03;0.50;;;;;;;;;;5133480;27;20086;-68
2021/05/15 09:34:12;;;;;;;1.27;0.50;;;;;;;;;;5133938;27;20488;-68
2021/05/15 09:36:40;;;;;;;2.33;0.65;;;;;;;;;;5133038;27;20045;-68
2021/05/15 09:39:11;;;;;;;1.20;0.57;;;;;;;;;;5132624;27;20042;-69
2021/05/15 09:41:40;;;;;;;0.82;0.60;;;;;;;;;;5133664;27;20047;-68
2021/05/15 09:44:08;;;;;;;1.20;0.40;;;;;;;;;;5133875;27;20395;-68
2021/05/15 09:46:35;;;;;;;0.57;0.30;;;;;;;;;;5133623;27;20133;-68
2021/05/15 09:49:02;;;;;;;0.57;0.35;;;;;;;;;;5132281;27;20398;-68
2021/05/15 09:51:28;;;;;;;3.97;0.57;;;;;;;;;;5125698;27;20527;-69
2021/05/15 09:53:54;;;;;;;4.20;0.60;;;;;;;;;;5127956;27;20133;-67
2021/05/15 09:56:28;;;;;;;2.03;0.50;;;;;;;;;;5133155;27;20431;-68
2021/05/15 09:58:56;;;;;;;1.15;0.30;;;;;;;;;;5119201;27;20043;-69
2021/05/15 10:01:22;;;;;;;1.60;0.40;;;;;;;;;;5129743;27;20103;-69
2021/05/15 10:03:48;;;;;;;1.02;0.50;;;;;;;;;;5131767;27;20051;-67
2021/05/15 10:06:16;;;;;;;1.30;0.50;;;;;;;;;;5132785;28;20059;-67
2021/05/15 10:08:44;;;;;;;1.35;0.50;;;;;;;;;;5132071;28;20130;-67
2021/05/15 10:11:10;;;;;;;1.73;0.50;;;;;;;;;;5131921;28;20395;-67
2021/05/15 10:13:39;;;;;;;0.40;0.25;;;;;;;;;;5129428;28;20054;-69
2021/05/15 10:16:05;;;;;;;1.15;0.50;;;;;;;;;;5131873;28;20398;-68
2021/05/15 10:18:32;;;;;;;0.50;0.32;;;;;;;;;;5131327;28;20486;-68
2021/05/15 10:20:59;;;;;;;0.60;0.40;;;;;;;;;;5130271;28;20134;-69
2021/05/15 10:23:28;;;;;;;1.55;0.30;;;;;;;;;;5131617;28;20047;-68
2021/05/15 10:26:02;;;;;;;1.85;0.43;;;;;;;;;;5131228;28;20125;-68
2021/05/15 10:28:30;;;;;;;3.65;0.50;;;;;;;;;;5129137;28;20039;-68
2021/05/15 10:31:11;;;;;;;1.00;0.30;;;;;;;;;;5131312;28;20384;-69
2021/05/15 10:33:37;;;;;;;2.03;0.98;;;;;;;;;;5129500;28;20047;-69
2021/05/15 10:36:05;;;;;;;1.60;0.82;;;;;;;;;;5131494;28;20054;-69
2021/05/15 10:38:34;;;;;;;2.35;0.50;;;;;;;;;;5131539;28;20054;-68
2021/05/15 10:41:12;;;;;;;2.70;0.80;;;;;;;;;;5121833;28;20404;-68
2021/05/15 10:43:39;;;;;;;1.05;0.50;;;;;;;;;;5124685;28;20139;-69
2021/05/15 10:46:20;;;;;;;0.75;0.40;;;;;;;;;;5131943;28;20492;-68
2021/05/15 10:49:04;;;;;;;1.13;0.47;;;;;;;;;;5132414;28;20039;-68
2021/05/15 10:51:35;;;;;;;1.63;0.60;;;;;;;;;;5128296;28;20050;-67
2021/05/15 10:54:02;;;;;;;0.70;0.50;;;;;;;;;;5132141;28;20568;-68
2021/05/15 10:56:30;;;;;;;2.63;0.80;;;;;;;;;;5131969;28;20062;-68
2021/05/15 10:59:02;;;;;;;1.65;0.43;;;;;;;;;;5129488;27;20043;-70
2021/05/15 11:01:42;;;;;;;1.55;0.70;;;;;;;;;;5131133;27;20075;-69
2021/05/15 11:04:19;;;;;;;1.40;0.93;;;;;;;;;;5134167;27;20053;-68
2021/05/15 11:06:59;;;;;;;1.23;0.43;;;;;;;;;;5133015;27;20051;-70
2021/05/15 11:09:25;;;;;;;3.20;0.98;;;;;;;;;;5129747;27;20045;-68
2021/05/15 11:11:51;;;;;;;1.83;0.93;;;;;;;;;;5134759;27;20047;-69
2021/05/15 11:14:24;;;;;;;1.50;0.80;;;;;;;;;;5134343;27;20058;-68
2021/05/15 11:17:07;;;;;;;0.80;0.50;;;;;;;;;;5134160;27;20051;-68
2021/05/15 11:19:33;;;;;;;0.68;0.50;;;;;;;;;;5134053;27;20092;-69
2021/05/15 11:22:00;;;;;;;1.73;0.80;;;;;;;;;;5134102;27;20043;-68
2021/05/15 11:24:34;;;;;;;2.78;0.98;;;;;;;;;;5134695;27;20043;-69
2021/05/15 11:27:09;;;;;;;1.30;0.80;;;;;;;;;;5133694;27;20056;-68
2021/05/15 11:29:36;;;;;;;1.17;0.75;;;;;;;;;;5121509;27;20039;-68
2021/05/15 11:32:08;;;;;;;3.25;0.60;;;;;;;;;;5133209;27;20050;-68
2021/05/15 11:34:34;;;;;;;0.82;0.50;;;;;;;;;;5131054;27;20108;-68
2021/05/15 11:37:00;;;;;;;0.50;0.40;;;;;;;;;;5134846;27;20051;-68
2021/05/15 11:39:26;;;;;;;1.73;0.60;;;;;;;;;;5133987;27;20053;-68
2021/05/15 11:42:03;;;;;;;1.80;0.52;;;;;;;;;;5134475;27;20051;-68
2021/05/15 11:44:29;;;;;;;2.17;1.10;;;;;;;;;;5131870;27;20081;-67
2021/05/15 11:46:55;;;;;;;0.98;0.47;;;;;;;;;;5134429;27;20043;-69
2021/05/15 11:49:23;;;;;;;1.23;0.60;;;;;;;;;;5135316;27;20039;-67
2021/05/15 11:51:57;;;;;;;0.93;0.50;;;;;;;;;;5132089;27;20043;-68
2021/05/15 11:54:23;;;;;;;1.80;0.50;;;;;;;;;;5123695;27;20043;-68
2021/05/15 11:56:51;;;;;;;0.65;0.50;;;;;;;;;;5134944;27;20062;-68
2021/05/15 11:59:18;;;;;;;1.88;0.35;;;;;;;;;;5135128;27;20040;-69
2021/05/15 12:01:45;;;;;;;1.00;0.25;;;;;;;;;;5131742;27;20050;-68
2021/05/15 12:04:14;;;;;;;1.30;0.50;;;;;;;;;;5134763;27;20043;-68
2021/05/15 12:06:41;;;;;;;12.32;1.02;;;;;;;;;;5134084;27;20054;-69
2021/05/15 12:09:12;;;;;;;4.47;0.50;;;;;;;;;;5133638;27;20057;-68
2021/05/15 12:11:38;;;;;;;1.58;0.40;;;;;;;;;;5132946;27;20062;-69
2021/05/15 12:14:04;;;;;;;2.05;0.40;;;;;;;;;;5133345;27;20047;-69
2021/05/15 12:16:34;;;;;;;18.65;2.00;;;;;;;;;;5134094;27;20047;-70
2021/05/15 12:19:00;;;;;;;1.55;0.95;;;;;;;;;;5133019;27;20048;-70
2021/05/15 12:21:26;;;;;;;2.53;0.60;;;;;;;;;;5133459;27;20448;-69
2021/05/15 12:23:53;;;;;;;6.60;0.85;;;;;;;;;;5134007;27;20070;-68
2021/05/15 12:26:19;;;;;;;3.30;0.75;;;;;;;;;;5133710;27;20046;-68
2021/05/15 12:28:47;;;;;;;2.22;0.55;;;;;;;;;;5130655;27;20039;-69
2021/05/15 12:31:24;;;;;;;1.50;0.40;;;;;;;;;;5133547;27;20514;-68
2021/05/15 12:33:50;;;;;;;1.17;0.50;;;;;;;;;;5131963;27;20130;-69
2021/05/15 12:36:16;;;;;;;0.70;0.35;;;;;;;;;;5133593;27;20537;-68
2021/05/15 12:38:47;;;;;;;3.08;1.67;;;;;;;;;;5133676;27;20050;-67
2021/05/15 12:41:15;;;;;;;3.17;0.60;;;;;;;;;;5132437;27;20055;-67
2021/05/15 12:43:44;;;;;;;0.75;0.50;;;;;;;;;;5133584;27;20095;-67
2021/05/15 12:46:12;;;;;;;2.25;0.60;;;;;;;;;;5132965;27;20483;-68
2021/05/15 12:48:41;;;;;;;1.35;0.45;;;;;;;;;;5131737;27;20078;-68
2021/05/15 12:51:09;;;;;;;1.00;0.47;;;;;;;;;;5129844;27;20051;-67
2021/05/15 12:53:35;;;;;;;1.30;0.40;;;;;;;;;;5127526;27;20054;-67
2021/05/15 12:56:02;;;;;;;1.50;0.50;;;;;;;;;;5128104;27;20066;-68
2021/05/15 12:58:29;;;;;;;0.55;0.30;;;;;;;;;;5129130;27;20043;-67
2021/05/15 13:00:57;;;;;;;1.23;0.30;;;;;;;;;;5126937;27;20046;-67
2021/05/15 13:03:24;;;;;;;1.80;0.30;;;;;;;;;;5140937;27;20392;-68
2021/05/15 13:05:51;;;;;;;2.70;0.43;;;;;;;;;;5148654;27;20051;-68
2021/05/15 13:08:17;;;;;;;4.10;0.55;;;;;;;;;;5120410;27;20559;-68
2021/05/15 13:10:43;;;;;;;2.88;0.45;;;;;;;;;;5142119;27;20050;-68
2021/05/15 13:13:10;;;;;;;1.58;0.40;;;;;;;;;;5122238;27;20047;-68
2021/05/15 13:15:38;;;;;;;0.60;0.30;;;;;;;;;;5127184;27;20069;-68
2021/05/15 13:18:14;;;;;;;0.60;0.30;;;;;;;;;;5136121;27;20059;-67
2021/05/15 13:20:40;;;;;;;;;;;;;;;;;;5139538;27;20472;-68
2021/05/15 13:23:06;;;;;;;1.23;0.30;;;;;;;;;;5141348;27;19922;-68
2021/05/15 13:25:32;;;;;;;1.10;0.63;;;;;;;;;;5143896;27;20047;-69
2021/05/15 13:27:58;;;;;;;0.40;0.30;;;;;;;;;;5141544;27;20069;-68
2021/05/15 13:30:24;;;;;;;1.35;0.68;;;;;;;;;;5142452;27;20055;-67
2021/05/15 13:32:51;;;;;;;1.90;0.55;;;;;;;;;;5143999;27;20042;-67
2021/05/15 13:35:17;;;;;;;3.25;0.63;;;;;;;;;;5143497;27;20047;-67
2021/05/15 13:37:43;;;;;;;0.63;0.38;;;;;;;;;;5143862;27;20044;-68
2021/05/15 13:40:10;;;;;;;2.40;0.60;;;;;;;;;;5143217;27;20473;-67
2021/05/15 13:42:36;;;;;;;0.98;0.40;;;;;;;;;;5141237;27;20047;-68
2021/05/15 13:45:02;;;;;;;2.40;0.60;;;;;;;;;;5143414;27;20578;-68
2021/05/15 13:47:28;;;;;;;1.60;0.50;;;;;;;;;;5143421;27;20056;-68
2021/05/15 13:49:55;;;;;;;1.00;0.40;;;;;;;;;;5141759;27;20080;-68
2021/05/15 13:52:21;;;;;;;3.53;0.50;;;;;;;;;;5141365;27;20043;-67
2021/05/15 13:54:47;;;;;;;1.17;0.55;;;;;;;;;;5135246;27;20047;-68
2021/05/15 13:57:13;;;;;;;1.52;0.57;;;;;;;;;;5139284;27;20042;-68
2021/05/15 13:59:38;;;;;;;1.50;0.40;;;;;;;;;;5139073;27;20055;-68
2021/05/15 14:02:05;;;;;;;2.00;0.50;;;;;;;;;;5135941;27;20104;-68
2021/05/15 14:04:30;;;;;;;1.25;0.40;;;;;;;;;;5136139;27;20043;-68
2021/05/15 14:06:57;;;;;;;1.80;0.70;;;;;;;;;;5142674;27;20054;-68
2021/05/15 14:09:23;;;;;;;1.67;0.82;;;;;;;;;;5142557;27;20050;-68
2021/05/15 14:11:49;;;;;;;2.15;0.90;;;;;;;;;;5143861;27;20515;-68
2021/05/15 14:14:15;;;;;;;0.82;0.50;;;;;;;;;;5141825;27;20093;-69
2021/05/15 14:16:41;;;;;;;2.33;0.60;;;;;;;;;;5139381;27;20119;-67
2021/05/15 14:19:07;;;;;;;2.13;0.60;;;;;;;;;;5132187;28;20051;-67
2021/05/15 14:21:33;;;;;;;1.27;0.50;;;;;;;;;;5131328;28;20051;-67
2021/05/15 14:24:01;;;;;;;0.77;0.40;;;;;;;;;;5131639;28;20047;-67
2021/05/15 14:26:27;;;;;;;1.35;0.35;;;;;;;;;;5132261;28;20058;-67
2021/05/15 14:28:53;;;;;;;1.95;0.47;;;;;;;;;;5131345;28;20126;-67
2021/05/15 14:31:19;;;;;;;1.95;0.93;;;;;;;;;;5132365;28;20047;-69
2021/05/15 14:33:45;;;;;;;1.58;0.68;;;;;;;;;;5130990;27;20043;-68
2021/05/15 14:36:11;;;;;;;0.75;0.35;;;;;;;;;;5135546;27;20518;-68
2021/05/15 14:38:37;;;;;;;2.65;0.57;;;;;;;;;;5135675;27;20115;-67
2021/05/15 14:41:04;;;;;;;0.93;0.50;;;;;;;;;;5136106;27;20054;-67
2021/05/15 14:43:30;;;;;;;1.75;0.50;;;;;;;;;;5135303;27;20043;-67